Tropical Cyclones
[Index]
Main Index Home Page Stock Weather Photos Extreme Storms Discussion Storm News and Storm Chasing Reports Tropical Cyclones / Hurricanes / Typhoons Weather Data and Links Wild Fires / Bushfires Weather Observation Techniques Weather Picture Catalogue Tornado Pictures and Reports Stock Video Footage and DVDs for sale
Season 2016-2017 Tropical Cyclone CALEB Track Map
Season 2016-2017 Summaries (Operational Data): [AU] [SIO] [SPAC] [SH]
<<- Previous TC | 2016-2017 Season | Next TC ->>

click for intensity scale information  Lat/long Grid: Show Hide

 Date Labels: Show Hide

Operational Tropical Cyclone Data : JTWC Advisories

Name: CALEB
Number: 1712

20 Mar 2017 12:00 UTC to 30 Mar 2017 18:00 UTC

    date/time    lat    long     hPa   cat  kts
2017-03-20 12    9.6   100.4    1006         20          
2017-03-20 18    9.9    98.7    1010         15          
2017-03-21 00    9.8    98.4    1006         15          
2017-03-21 06    9.7    98.0    1006         20          
2017-03-21 12    9.7    97.2    1004         25          
2017-03-21 18    9.9    96.8    1004         25          
2017-03-22 00   10.3    97.3    1004         25          
2017-03-22 06   10.3    98.2    1004         25          
2017-03-22 12   10.8    99.1    1004         25          
2017-03-22 18   11.2    99.6    1006         25          
2017-03-23 00   12.0   100.0    1006         25          
2017-03-23 06   12.7   100.3     996    1    40          
2017-03-23 12   13.1   100.4     996    1    40          
2017-03-23 18   13.5   100.6    1002    1    35          
2017-03-24 00   14.0   100.8    1002    1    35          
2017-03-24 06   14.3   100.8    1002    1    35          
2017-03-24 12   14.6   100.7     993    1    40          
2017-03-24 18   14.8   100.6     997    1    45          
2017-03-25 00   15.1   100.4     997    1    45          
2017-03-25 06   15.5   100.2     998    1    45          
2017-03-25 12   15.7   100.0     998    1    45          
2017-03-25 18   15.9    99.8     998    1    45          
2017-03-26 00   16.0    99.6     989    1    45          
2017-03-26 06   16.0    99.3    1000    1    40          
2017-03-26 12   15.9    98.7     993    1    40          
2017-03-26 18   15.8    98.4    1004    1    35          
2017-03-27 00   15.5    97.9    1004    1    35          
2017-03-27 06   15.4    97.3     996    1    35          
2017-03-27 12   15.4    96.9    1000         30          
2017-03-27 18   15.5    96.5    1000         30          
2017-03-28 00   15.5    96.1    1000         30          
2017-03-28 06   15.6    95.8    1000         30          
2017-03-28 12   15.6    95.3    1000         30          
2017-03-28 18   15.8    94.8    1000         30          
2017-03-29 00   16.0    94.2    1000         30          
2017-03-29 06   16.0    93.4    1000         30          
2017-03-29 12   16.2    92.8    1000         30          
2017-03-29 18   16.2    92.0    1004         25          
2017-03-30 00   16.2    91.2    1004         25          
2017-03-30 06   16.2    90.8    1009         20          
2017-03-30 12   16.2    90.2    1007         20          
2017-03-30 18   16.2    89.1    1007         20          
Winds are 10-min average.

Tropical cyclone tracks developed by Michael Bath using operational warnings and advisories and Google Maps.


[Australian Severe Weather index] [Copyright Notice] [Email Contacts] [Search This Site] [Privacy Policy]
Document: tropical_cyclone_caleb.htm Updated: 4 July 2017